Terminal Aerodrome Forecast
Issued by NWS Boston, MA

Home | Current Version | Previous Version | Text Only | Print | Product List | Glossary On
Versions: 1 2 3 4 5 6 7 8 9 10 11 12 13 14 15 16 17 18 19 20 21 22 23 24
000
FTUS41 KBOX 271720
TAFPVD
TAF
KPVD 271720Z 2718/2818 16006KT P6SM BKN035
     FM280200 17005KT P6SM SCT050
     FM280700 17004KT P6SM BKN015
     FM281400 17005KT P6SM BKN035=

USA.gov is the U.S. government's official web portal to all federal, state and local government web resources and services.